sensor_id;sensor_type;location;lat;lon;timestamp;pressure;altitude;pressure_sealevel;temperature;humidity
21129;BME280;10722;51.910;8.352;2022-10-15T00:00:41;100049.09;;;12.84;100.00
21129;BME280;10722;51.910;8.352;2022-10-15T00:03:26;100055.16;;;12.93;100.00
21129;BME280;10722;51.910;8.352;2022-10-15T00:06:15;100049.97;;;12.78;100.00
21129;BME280;10722;51.910;8.352;2022-10-15T00:09:01;100047.44;;;12.70;100.00
21129;BME280;10722;51.910;8.352;2022-10-15T00:11:49;100053.44;;;12.86;100.00
21129;BME280;10722;51.910;8.352;2022-10-15T00:14:34;100051.66;;;12.99;100.00
21129;BME280;10722;51.910;8.352;2022-10-15T00:17:19;100040.41;;;12.97;100.00
21129;BME280;10722;51.910;8.352;2022-10-15T00:20:07;100037.00;;;12.86;100.00
21129;BME280;10722;51.910;8.352;2022-10-15T00:22:54;100037.03;;;12.72;100.00
21129;BME280;10722;51.910;8.352;2022-10-15T00:25:39;100038.75;;;12.82;100.00
21129;BME280;10722;51.910;8.352;2022-10-15T00:28:25;100025.81;;;12.50;100.00
21129;BME280;10722;51.910;8.352;2022-10-15T00:31:17;100043.13;;;12.46;100.00
21129;BME280;10722;51.910;8.352;2022-10-15T00:34:02;100038.78;;;12.44;100.00
21129;BME280;10722;51.910;8.352;2022-10-15T00:36:49;100053.50;;;12.48;100.00
21129;BME280;10722;51.910;8.352;2022-10-15T00:39:35;100052.66;;;12.32;100.00
21129;BME280;10722;51.910;8.352;2022-10-15T00:42:20;100053.50;;;12.26;100.00
21129;BME280;10722;51.910;8.352;2022-10-15T00:45:12;100043.13;;;12.19;100.00
21129;BME280;10722;51.910;8.352;2022-10-15T00:47:57;100053.50;;;12.43;100.00
21129;BME280;10722;51.910;8.352;2022-10-15T00:50:43;100052.63;;;12.49;100.00
21129;BME280;10722;51.910;8.352;2022-10-15T00:53:28;100032.75;;;12.46;100.00
21129;BME280;10722;51.910;8.352;2022-10-15T00:56:15;100039.66;;;12.35;100.00
21129;BME280;10722;51.910;8.352;2022-10-15T00:59:03;100041.41;;;12.45;100.00
21129;BME280;10722;51.910;8.352;2022-10-15T01:01:49;100037.06;;;12.46;100.00
21129;BME280;10722;51.910;8.352;2022-10-15T01:04:34;100031.91;;;12.30;100.00
21129;BME280;10722;51.910;8.352;2022-10-15T01:07:20;100037.94;;;12.16;100.00
21129;BME280;10722;51.910;8.352;2022-10-15T01:10:06;100031.03;;;12.18;100.00
21129;BME280;10722;51.910;8.352;2022-10-15T01:13:08;100031.03;;;12.15;100.00
21129;BME280;10722;51.910;8.352;2022-10-15T01:19:00;100020.66;;;12.07;100.00
21129;BME280;10722;51.910;8.352;2022-10-15T01:21:51;100026.72;;;12.01;100.00
21129;BME280;10722;51.910;8.352;2022-10-15T01:24:48;100015.50;;;12.05;100.00
21129;BME280;10722;51.910;8.352;2022-10-15T01:27:41;100018.06;;;12.10;100.00
21129;BME280;10722;51.910;8.352;2022-10-15T01:30:37;100020.66;;;12.11;100.00
21129;BME280;10722;51.910;8.352;2022-10-15T01:33:45;100008.56;;;12.17;100.00
21129;BME280;10722;51.910;8.352;2022-10-15T01:36:39;100009.44;;;12.11;100.00
21129;BME280;10722;51.910;8.352;2022-10-15T01:39:36;100012.03;;;12.06;100.00
21129;BME280;10722;51.910;8.352;2022-10-15T01:42:27;100019.81;;;11.97;100.00
21129;BME280;10722;51.910;8.352;2022-10-15T01:45:22;100023.22;;;11.81;100.00
21129;BME280;10722;51.910;8.352;2022-10-15T01:48:11;100026.72;;;11.86;100.00
21129;BME280;10722;51.910;8.352;2022-10-15T01:51:00;100017.22;;;12.08;100.00
21129;BME280;10722;51.910;8.352;2022-10-15T01:53:48;100019.81;;;12.08;100.00
21129;BME280;10722;51.910;8.352;2022-10-15T01:56:35;100021.53;;;12.03;100.00
21129;BME280;10722;51.910;8.352;2022-10-15T01:59:23;100012.88;;;11.96;100.00
21129;BME280;10722;51.910;8.352;2022-10-15T02:02:09;100013.72;;;11.94;100.00
21129;BME280;10722;51.910;8.352;2022-10-15T02:04:54;100014.59;;;11.99;100.00
21129;BME280;10722;51.910;8.352;2022-10-15T02:08:03;100028.44;;;11.93;100.00
21129;BME280;10722;51.910;8.352;2022-10-15T02:11:05;100030.19;;;11.94;100.00
21129;BME280;10722;51.910;8.352;2022-10-15T02:14:08;100029.25;;;11.80;100.00
21129;BME280;10722;51.910;8.352;2022-10-15T02:17:05;100026.69;;;11.94;100.00
21129;BME280;10722;51.910;8.352;2022-10-15T02:19:57;100021.53;;;12.12;100.00
21129;BME280;10722;51.910;8.352;2022-10-15T02:23:07;100018.06;;;12.13;100.00
21129;BME280;10722;51.910;8.352;2022-10-15T02:25:54;100027.56;;;12.06;100.00
21129;BME280;10722;51.910;8.352;2022-10-15T02:28:49;100010.28;;;11.99;100.00
21129;BME280;10722;51.910;8.352;2022-10-15T02:31:37;100018.06;;;11.96;100.00
21129;BME280;10722;51.910;8.352;2022-10-15T02:34:27;100007.69;;;12.01;100.00
21129;BME280;10722;51.910;8.352;2022-10-15T02:37:14;99999.03;;;12.05;100.00
21129;BME280;10722;51.910;8.352;2022-10-15T02:40:02;100012.03;;;12.14;100.00
21129;BME280;10722;51.910;8.352;2022-10-15T02:42:50;100005.97;;;12.15;100.00
21129;BME280;10722;51.910;8.352;2022-10-15T02:45:36;100012.00;;;12.22;100.00
21129;BME280;10722;51.910;8.352;2022-10-15T02:48:22;100010.28;;;12.28;100.00
21129;BME280;10722;51.910;8.352;2022-10-15T02:51:07;100015.47;;;12.31;100.00
21129;BME280;10722;51.910;8.352;2022-10-15T02:53:53;100023.25;;;12.31;100.00
21129;BME280;10722;51.910;8.352;2022-10-15T02:56:41;100014.63;;;12.20;100.00
21129;BME280;10722;51.910;8.352;2022-10-15T02:59:26;100014.63;;;12.17;100.00
21129;BME280;10722;51.910;8.352;2022-10-15T03:02:11;100013.75;;;12.14;100.00
21129;BME280;10722;51.910;8.352;2022-10-15T03:05:02;100008.56;;;12.18;100.00
21129;BME280;10722;51.910;8.352;2022-10-15T03:07:47;100012.03;;;12.20;100.00
21129;BME280;10722;51.910;8.352;2022-10-15T03:10:35;100019.78;;;12.34;100.00
21129;BME280;10722;51.910;8.352;2022-10-15T03:13:24;100021.53;;;12.30;100.00
21129;BME280;10722;51.910;8.352;2022-10-15T03:16:10;100015.47;;;12.33;100.00
21129;BME280;10722;51.910;8.352;2022-10-15T03:18:57;100019.78;;;12.36;100.00
21129;BME280;10722;51.910;8.352;2022-10-15T03:21:45;100010.28;;;12.36;100.00
21129;BME280;10722;51.910;8.352;2022-10-15T03:24:31;100017.16;;;12.55;100.00
21129;BME280;10722;51.910;8.352;2022-10-15T03:27:16;100016.31;;;12.53;100.00
21129;BME280;10722;51.910;8.352;2022-10-15T03:30:02;100006.81;;;12.45;100.00
21129;BME280;10722;51.910;8.352;2022-10-15T03:32:47;100004.22;;;12.32;100.00
21129;BME280;10722;51.910;8.352;2022-10-15T03:35:32;100012.84;;;12.59;100.00
21129;BME280;10722;51.910;8.352;2022-10-15T03:38:20;100000.78;;;12.37;100.00
21129;BME280;10722;51.910;8.352;2022-10-15T03:41:07;99995.56;;;12.35;100.00
21129;BME280;10722;51.910;8.352;2022-10-15T03:43:52;99991.25;;;12.40;100.00
21129;BME280;10722;51.910;8.352;2022-10-15T03:46:37;100001.66;;;12.13;100.00
21129;BME280;10722;51.910;8.352;2022-10-15T03:49:22;100001.66;;;11.99;100.00
21129;BME280;10722;51.910;8.352;2022-10-15T03:52:08;100012.00;;;12.05;100.00
21129;BME280;10722;51.910;8.352;2022-10-15T03:54:54;100011.16;;;11.98;100.00
21129;BME280;10722;51.910;8.352;2022-10-15T03:57:39;100012.00;;;11.96;100.00
21129;BME280;10722;51.910;8.352;2022-10-15T04:00:24;100018.09;;;12.08;100.00
21129;BME280;10722;51.910;8.352;2022-10-15T04:03:10;100018.06;;;12.07;100.00
21129;BME280;10722;51.910;8.352;2022-10-15T04:05:56;100023.28;;;12.02;100.00
21129;BME280;10722;51.910;8.352;2022-10-15T04:08:45;100030.19;;;12.00;100.00
21129;BME280;10722;51.910;8.352;2022-10-15T04:11:30;100029.28;;;12.07;100.00
21129;BME280;10722;51.910;8.352;2022-10-15T04:14:15;100022.38;;;12.19;100.00
21129;BME280;10722;51.910;8.352;2022-10-15T04:17:00;100023.25;;;12.34;100.00
21129;BME280;10722;51.910;8.352;2022-10-15T04:19:45;100020.63;;;12.51;100.00
21129;BME280;10722;51.910;8.352;2022-10-15T04:22:35;100021.53;;;12.37;100.00
21129;BME280;10722;51.910;8.352;2022-10-15T04:25:21;100031.00;;;12.51;100.00
21129;BME280;10722;51.910;8.352;2022-10-15T04:28:06;100027.56;;;12.48;100.00
21129;BME280;10722;51.910;8.352;2022-10-15T04:30:56;100031.03;;;12.48;100.00
21129;BME280;10722;51.910;8.352;2022-10-15T04:33:41;100025.84;;;12.48;100.00
21129;BME280;10722;51.910;8.352;2022-10-15T04:36:26;100025.84;;;12.34;100.00
21129;BME280;10722;51.910;8.352;2022-10-15T04:39:11;100018.94;;;12.32;100.00
21129;BME280;10722;51.910;8.352;2022-10-15T04:42:00;100012.88;;;12.42;100.00
21129;BME280;10722;51.910;8.352;2022-10-15T04:44:47;100010.25;;;12.54;100.00
21129;BME280;10722;51.910;8.352;2022-10-15T04:47:32;100015.47;;;12.42;100.00
21129;BME280;10722;51.910;8.352;2022-10-15T04:50:20;100018.91;;;12.35;100.00
21129;BME280;10722;51.910;8.352;2022-10-15T04:53:05;100017.22;;;12.31;100.00
21129;BME280;10722;51.910;8.352;2022-10-15T04:55:50;100006.84;;;12.25;100.00
21129;BME280;10722;51.910;8.352;2022-10-15T04:58:35;100011.16;;;12.29;100.00
21129;BME280;10722;51.910;8.352;2022-10-15T05:01:23;100008.56;;;12.24;100.00
21129;BME280;10722;51.910;8.352;2022-10-15T05:04:11;100009.44;;;12.17;100.00
21129;BME280;10722;51.910;8.352;2022-10-15T05:06:56;100013.75;;;12.17;100.00
21129;BME280;10722;51.910;8.352;2022-10-15T05:09:42;100010.28;;;12.15;100.00
21129;BME280;10722;51.910;8.352;2022-10-15T05:12:30;100022.38;;;12.13;100.00
21129;BME280;10722;51.910;8.352;2022-10-15T05:15:16;100022.38;;;12.16;100.00
21129;BME280;10722;51.910;8.352;2022-10-15T05:18:00;100023.25;;;12.11;100.00
21129;BME280;10722;51.910;8.352;2022-10-15T05:20:46;100021.53;;;11.95;100.00
21129;BME280;10722;51.910;8.352;2022-10-15T05:23:33;100025.88;;;12.05;100.00
21129;BME280;10722;51.910;8.352;2022-10-15T05:26:21;100025.84;;;11.96;100.00
21129;BME280;10722;51.910;8.352;2022-10-15T05:29:08;100019.75;;;11.85;100.00
21129;BME280;10722;51.910;8.352;2022-10-15T05:31:53;100028.44;;;11.98;100.00
21129;BME280;10722;51.910;8.352;2022-10-15T05:34:38;100025.88;;;12.08;100.00
21129;BME280;10722;51.910;8.352;2022-10-15T05:37:24;100025.88;;;12.08;100.00
21129;BME280;10722;51.910;8.352;2022-10-15T05:40:10;100034.47;;;12.10;100.00
21129;BME280;10722;51.910;8.352;2022-10-15T05:42:55;100032.75;;;12.16;100.00
21129;BME280;10722;51.910;8.352;2022-10-15T05:45:41;100028.47;;;12.19;100.00
21129;BME280;10722;51.910;8.352;2022-10-15T05:48:26;100043.16;;;12.28;100.00
21129;BME280;10722;51.910;8.352;2022-10-15T05:51:11;100037.97;;;12.34;100.00
21129;BME280;10722;51.910;8.352;2022-10-15T05:53:57;100041.38;;;12.33;100.00
21129;BME280;10722;51.910;8.352;2022-10-15T05:56:44;100031.03;;;12.30;100.00
21129;BME280;10722;51.910;8.352;2022-10-15T05:59:33;100031.91;;;12.23;100.00
21129;BME280;10722;51.910;8.352;2022-10-15T06:02:18;100031.03;;;12.25;100.00
21129;BME280;10722;51.910;8.352;2022-10-15T06:05:04;100036.22;;;12.38;100.00
21129;BME280;10722;51.910;8.352;2022-10-15T06:07:49;100028.41;;;12.47;100.00
21129;BME280;10722;51.910;8.352;2022-10-15T06:10:35;100029.31;;;12.47;100.00
21129;BME280;10722;51.910;8.352;2022-10-15T06:13:21;100032.72;;;12.49;100.00
21129;BME280;10722;51.910;8.352;2022-10-15T06:16:07;100032.75;;;12.59;100.00
21129;BME280;10722;51.910;8.352;2022-10-15T06:18:53;100029.25;;;12.69;100.00
21129;BME280;10722;51.910;8.352;2022-10-15T06:21:38;100037.91;;;12.71;100.00
21129;BME280;10722;51.910;8.352;2022-10-15T06:24:23;100035.31;;;12.66;100.00
21129;BME280;10722;51.910;8.352;2022-10-15T06:27:08;100035.25;;;12.86;100.00
21129;BME280;10722;51.910;8.352;2022-10-15T06:29:53;100047.38;;;12.98;100.00
21129;BME280;10722;51.910;8.352;2022-10-15T06:32:38;100049.03;;;13.08;100.00
21129;BME280;10722;51.910;8.352;2022-10-15T06:35:24;100052.50;;;13.06;100.00
21129;BME280;10722;51.910;8.352;2022-10-15T06:38:10;100041.28;;;13.02;100.00
21129;BME280;10722;51.910;8.352;2022-10-15T06:40:55;100049.06;;;13.07;100.00
21129;BME280;10722;51.910;8.352;2022-10-15T06:43:40;100055.97;;;13.05;100.00
21129;BME280;10722;51.910;8.352;2022-10-15T06:46:25;100055.13;;;12.96;100.00
21129;BME280;10722;51.910;8.352;2022-10-15T06:49:11;100051.66;;;13.00;100.00
21129;BME280;10722;51.910;8.352;2022-10-15T06:51:57;100060.28;;;13.12;100.00
21129;BME280;10722;51.910;8.352;2022-10-15T06:54:47;100060.25;;;13.30;100.00
21129;BME280;10722;51.910;8.352;2022-10-15T06:57:33;100065.41;;;13.38;100.00
21129;BME280;10722;51.910;8.352;2022-10-15T07:00:21;100074.94;;;13.34;100.00
21129;BME280;10722;51.910;8.352;2022-10-15T07:03:07;100065.38;;;13.47;100.00
21129;BME280;10722;51.910;8.352;2022-10-15T07:05:52;100067.13;;;13.42;100.00
21129;BME280;10722;51.910;8.352;2022-10-15T07:08:37;100074.94;;;13.39;100.00
21129;BME280;10722;51.910;8.352;2022-10-15T07:11:23;100063.72;;;13.26;100.00
21129;BME280;10722;51.910;8.352;2022-10-15T07:14:08;100076.66;;;13.37;100.00
21129;BME280;10722;51.910;8.352;2022-10-15T07:16:52;100075.81;;;13.38;100.00
21129;BME280;10722;51.910;8.352;2022-10-15T07:19:37;100078.34;;;13.47;100.00
21129;BME280;10722;51.910;8.352;2022-10-15T07:22:23;100086.16;;;13.52;100.00
21129;BME280;10722;51.910;8.352;2022-10-15T07:25:09;100082.69;;;13.50;100.00
21129;BME280;10722;51.910;8.352;2022-10-15T07:27:55;100089.56;;;13.57;100.00
21129;BME280;10722;51.910;8.352;2022-10-15T07:30:40;100088.69;;;13.59;100.00
21129;BME280;10722;51.910;8.352;2022-10-15T07:33:26;100086.13;;;13.58;100.00
21129;BME280;10722;51.910;8.352;2022-10-15T07:36:11;100092.13;;;13.60;100.00
21129;BME280;10722;51.910;8.352;2022-10-15T07:38:56;100101.63;;;13.70;100.00
21129;BME280;10722;51.910;8.352;2022-10-15T07:41:41;100096.47;;;13.64;100.00
21129;BME280;10722;51.910;8.352;2022-10-15T07:44:26;100108.56;;;13.74;100.00
21129;BME280;10722;51.910;8.352;2022-10-15T07:47:11;100105.09;;;13.67;100.00
21129;BME280;10722;51.910;8.352;2022-10-15T07:49:56;100106.91;;;13.55;100.00
21129;BME280;10722;51.910;8.352;2022-10-15T07:52:41;100100.00;;;13.48;100.00
21129;BME280;10722;51.910;8.352;2022-10-15T07:55:26;100107.78;;;13.54;100.00
21129;BME280;10722;51.910;8.352;2022-10-15T07:58:12;100102.59;;;13.52;100.00
21129;BME280;10722;51.910;8.352;2022-10-15T08:01:01;100097.41;;;13.52;100.00
21129;BME280;10722;51.910;8.352;2022-10-15T08:03:47;100091.28;;;13.61;100.00
21129;BME280;10722;51.910;8.352;2022-10-15T08:06:33;100093.91;;;13.58;100.00
21129;BME280;10722;51.910;8.352;2022-10-15T08:09:19;100093.03;;;13.60;100.00
21129;BME280;10722;51.910;8.352;2022-10-15T08:12:04;100094.75;;;13.58;100.00
21129;BME280;10722;51.910;8.352;2022-10-15T08:14:50;100092.13;;;13.64;100.00
21129;BME280;10722;51.910;8.352;2022-10-15T08:17:35;100091.25;;;13.72;100.00
21129;BME280;10722;51.910;8.352;2022-10-15T08:20:20;100090.31;;;13.80;100.00
21129;BME280;10722;51.910;8.352;2022-10-15T08:23:13;100075.59;;;13.76;100.00
21129;BME280;10722;51.910;8.352;2022-10-15T08:25:59;100072.16;;;13.74;100.00
21129;BME280;10722;51.910;8.352;2022-10-15T08:28:44;100065.19;;;13.79;100.00
21129;BME280;10722;51.910;8.352;2022-10-15T08:31:30;100065.09;;;13.95;100.00
21129;BME280;10722;51.910;8.352;2022-10-15T08:34:15;100062.44;;;14.01;100.00
21129;BME280;10722;51.910;8.352;2022-10-15T08:37:01;100052.81;;;14.12;100.00
21129;BME280;10722;51.910;8.352;2022-10-15T08:39:47;100054.53;;;14.15;100.00
21129;BME280;10722;51.910;8.352;2022-10-15T08:42:42;100051.00;;;14.22;100.00
21129;BME280;10722;51.910;8.352;2022-10-15T08:45:33;100049.19;;;14.31;100.00
21129;BME280;10722;51.910;8.352;2022-10-15T08:48:27;100037.75;;;14.52;100.00
21129;BME280;10722;51.910;8.352;2022-10-15T08:51:19;100038.56;;;14.62;100.00
21129;BME280;10722;51.910;8.352;2022-10-15T08:54:12;100030.66;;;14.68;100.00
21129;BME280;10722;51.910;8.352;2022-10-15T08:57:09;100026.31;;;14.70;100.00
21129;BME280;10722;51.910;8.352;2022-10-15T09:03:00;100027.03;;;14.85;100.00
21129;BME280;10722;51.910;8.352;2022-10-15T09:14:42;100008.94;;;15.42;100.00
21129;BME280;10722;51.910;8.352;2022-10-15T09:17:31;100003.16;;;15.21;100.00
21129;BME280;10722;51.910;8.352;2022-10-15T09:20:20;100005.47;;;15.43;100.00
21129;BME280;10722;51.910;8.352;2022-10-15T09:23:16;99993.91;;;15.59;100.00
21129;BME280;10722;51.910;8.352;2022-10-15T09:29:15;99979.97;;;15.63;100.00
21129;BME280;10722;51.910;8.352;2022-10-15T09:32:24;99971.34;;;15.60;100.00
21129;BME280;10722;51.910;8.352;2022-10-15T09:44:23;99966.59;;;15.85;100.00
21129;BME280;10722;51.910;8.352;2022-10-15T09:47:23;99966.38;;;15.99;100.00
21129;BME280;10722;51.910;8.352;2022-10-15T09:50:12;99975.31;;;16.35;100.00
21129;BME280;10722;51.910;8.352;2022-10-15T09:53:17;99947.88;;;16.14;98.31
21129;BME280;10722;51.910;8.352;2022-10-15T09:56:36;99964.72;;;15.95;99.14
21129;BME280;10722;51.910;8.352;2022-10-15T09:59:23;99980.44;;;15.90;99.33
21129;BME280;10722;51.910;8.352;2022-10-15T10:05:18;99980.44;;;15.91;99.67
21129;BME280;10722;51.910;8.352;2022-10-15T10:08:24;99985.72;;;15.87;100.00
21129;BME280;10722;51.910;8.352;2022-10-15T10:11:12;99988.44;;;15.81;100.00
21129;BME280;10722;51.910;8.352;2022-10-15T10:13:58;99976.13;;;15.89;99.25
21129;BME280;10722;51.910;8.352;2022-10-15T10:17:04;99964.91;;;15.82;98.13
21129;BME280;10722;51.910;8.352;2022-10-15T10:22:58;99976.00;;;15.97;98.42
21129;BME280;10722;51.910;8.352;2022-10-15T10:25:44;99978.69;;;15.92;98.04
21129;BME280;10722;51.910;8.352;2022-10-15T10:28:53;99967.09;;;16.08;97.11
21129;BME280;10722;51.910;8.352;2022-10-15T10:31:44;99965.59;;;16.45;96.47
21129;BME280;10722;51.910;8.352;2022-10-15T10:34:31;99935.56;;;16.67;94.38
21129;BME280;10722;51.910;8.352;2022-10-15T10:37:17;99943.34;;;16.70;94.76
21129;BME280;10722;51.910;8.352;2022-10-15T10:40:02;99927.09;;;16.99;92.58
21129;BME280;10722;51.910;8.352;2022-10-15T10:43:09;99907.94;;;17.38;91.12
21129;BME280;10722;51.910;8.352;2022-10-15T10:46:01;99857.25;;;17.43;87.14
21129;BME280;10722;51.910;8.352;2022-10-15T10:48:47;99849.97;;;17.20;86.11
21129;BME280;10722;51.910;8.352;2022-10-15T10:51:33;99872.50;;;17.24;87.17
21129;BME280;10722;51.910;8.352;2022-10-15T10:54:18;99870.06;;;17.17;86.82
21129;BME280;10722;51.910;8.352;2022-10-15T10:57:09;99888.19;;;17.26;88.21
21129;BME280;10722;51.910;8.352;2022-10-15T10:59:56;99848.41;;;17.12;85.80
21129;BME280;10722;51.910;8.352;2022-10-15T11:02:42;99862.16;;;17.20;86.33
21129;BME280;10722;51.910;8.352;2022-10-15T11:05:30;99840.75;;;17.41;84.85
21129;BME280;10722;51.910;8.352;2022-10-15T11:08:26;99821.59;;;17.39;83.39
21129;BME280;10722;51.910;8.352;2022-10-15T11:11:18;99841.34;;;17.51;84.37
21129;BME280;10722;51.910;8.352;2022-10-15T11:27:26;99806.56;;;17.83;81.35
21129;BME280;10722;51.910;8.352;2022-10-15T11:40:12;99844.25;;;18.09;83.10
21129;BME280;10722;51.910;8.352;2022-10-15T11:46:17;99876.84;;;17.63;85.19
21129;BME280;10722;51.910;8.352;2022-10-15T11:49:25;99870.84;;;17.58;85.03
21129;BME280;10722;51.910;8.352;2022-10-15T11:55:13;99848.19;;;17.57;84.17
21129;BME280;10722;51.910;8.352;2022-10-15T11:58:07;99855.50;;;17.44;84.98
21129;BME280;10722;51.910;8.352;2022-10-15T12:00:59;99859.88;;;17.43;85.29
21129;BME280;10722;51.910;8.352;2022-10-15T12:06:41;99860.53;;;17.52;85.90
21129;BME280;10722;51.910;8.352;2022-10-15T12:09:40;99849.78;;;17.62;85.59
21129;BME280;10722;51.910;8.352;2022-10-15T12:12:36;99861.06;;;17.66;86.51
21129;BME280;10722;51.910;8.352;2022-10-15T12:15:37;99855.66;;;17.72;86.07
21129;BME280;10722;51.910;8.352;2022-10-15T12:18:41;99844.13;;;17.81;85.99
21129;BME280;10722;51.910;8.352;2022-10-15T12:21:32;99843.13;;;17.86;85.80
21129;BME280;10722;51.910;8.352;2022-10-15T12:24:48;99849.84;;;17.95;86.88
21129;BME280;10722;51.910;8.352;2022-10-15T12:27:35;99842.13;;;17.90;86.16
21129;BME280;10722;51.910;8.352;2022-10-15T12:30:20;99838.91;;;17.79;86.08
21129;BME280;10722;51.910;8.352;2022-10-15T12:33:24;99852.28;;;17.68;86.76
21129;BME280;10722;51.910;8.352;2022-10-15T12:39:22;99844.34;;;17.72;87.52
21129;BME280;10722;51.910;8.352;2022-10-15T12:42:31;99858.28;;;17.72;88.60
21129;BME280;10722;51.910;8.352;2022-10-15T12:45:29;99872.53;;;17.60;90.09
21129;BME280;10722;51.910;8.352;2022-10-15T12:48:33;99880.81;;;17.42;92.88
21129;BME280;10722;51.910;8.352;2022-10-15T12:54:33;99904.84;;;16.80;100.00
21129;BME280;10722;51.910;8.352;2022-10-15T13:03:14;99887.34;;;16.42;100.00
21129;BME280;10722;51.910;8.352;2022-10-15T13:06:13;99879.47;;;16.43;100.00
21129;BME280;10722;51.910;8.352;2022-10-15T13:11:55;99856.59;;;16.54;100.00
21129;BME280;10722;51.910;8.352;2022-10-15T13:14:47;99858.06;;;16.68;100.00
21129;BME280;10722;51.910;8.352;2022-10-15T13:17:37;99850.09;;;16.74;100.00
21129;BME280;10722;51.910;8.352;2022-10-15T13:20:33;99847.25;;;16.86;100.00
21129;BME280;10722;51.910;8.352;2022-10-15T13:23:28;99841.78;;;16.97;100.00
21129;BME280;10722;51.910;8.352;2022-10-15T13:26:25;99838.28;;;16.98;100.00
21129;BME280;10722;51.910;8.352;2022-10-15T13:29:14;99839.09;;;17.00;100.00
21129;BME280;10722;51.910;8.352;2022-10-15T13:32:00;99839.75;;;17.10;100.00
21129;BME280;10722;51.910;8.352;2022-10-15T13:34:45;99830.19;;;17.09;100.00
21129;BME280;10722;51.910;8.352;2022-10-15T13:37:34;99830.88;;;17.17;100.00
21129;BME280;10722;51.910;8.352;2022-10-15T13:40:22;99822.94;;;17.20;100.00
21129;BME280;10722;51.910;8.352;2022-10-15T13:43:25;99820.13;;;17.29;100.00
21129;BME280;10722;51.910;8.352;2022-10-15T13:46:14;99821.75;;;17.35;100.00
21129;BME280;10722;51.910;8.352;2022-10-15T13:49:01;99803.47;;;17.33;100.00
21129;BME280;10722;51.910;8.352;2022-10-15T13:51:49;99821.59;;;17.39;100.00
21129;BME280;10722;51.910;8.352;2022-10-15T13:54:36;99818.97;;;17.41;100.00
21129;BME280;10722;51.910;8.352;2022-10-15T13:57:22;99808.44;;;17.42;100.00
21129;BME280;10722;51.910;8.352;2022-10-15T14:00:19;99836.41;;;17.40;100.00
21129;BME280;10722;51.910;8.352;2022-10-15T14:03:27;99832.06;;;17.39;100.00
21129;BME280;10722;51.910;8.352;2022-10-15T14:06:19;99828.78;;;17.31;100.00
21129;BME280;10722;51.910;8.352;2022-10-15T14:09:19;99835.91;;;17.26;100.00
21129;BME280;10722;51.910;8.352;2022-10-15T14:12:06;99827.91;;;17.31;100.00
21129;BME280;10722;51.910;8.352;2022-10-15T14:14:51;99825.13;;;17.38;100.00
21129;BME280;10722;51.910;8.352;2022-10-15T14:17:36;99829.28;;;17.45;100.00
21129;BME280;10722;51.910;8.352;2022-10-15T14:20:21;99823.34;;;17.40;100.00
21129;BME280;10722;51.910;8.352;2022-10-15T14:23:16;99838.34;;;17.32;100.00
21129;BME280;10722;51.910;8.352;2022-10-15T14:26:04;99832.44;;;17.24;100.00
21129;BME280;10722;51.910;8.352;2022-10-15T14:28:50;99829.78;;;17.25;100.00
21129;BME280;10722;51.910;8.352;2022-10-15T14:40:19;99837.19;;;17.44;100.00
21129;BME280;10722;51.910;8.352;2022-10-15T14:43:07;99839.75;;;17.45;100.00
21129;BME280;10722;51.910;8.352;2022-10-15T14:46:00;99829.16;;;17.52;100.00
21129;BME280;10722;51.910;8.352;2022-10-15T14:48:47;99828.09;;;17.59;100.00
21129;BME280;10722;51.910;8.352;2022-10-15T14:51:32;99820.22;;;17.60;100.00
21129;BME280;10722;51.910;8.352;2022-10-15T14:54:19;99817.34;;;17.69;100.00
21129;BME280;10722;51.910;8.352;2022-10-15T14:57:15;99816.50;;;17.69;100.00
21129;BME280;10722;51.910;8.352;2022-10-15T15:00:05;99815.00;;;17.60;100.00
21129;BME280;10722;51.910;8.352;2022-10-15T15:02:56;99812.16;;;17.68;100.00
21129;BME280;10722;51.910;8.352;2022-10-15T15:05:46;99809.41;;;17.74;100.00
21129;BME280;10722;51.910;8.352;2022-10-15T15:08:31;99819.94;;;17.71;99.90
21129;BME280;10722;51.910;8.352;2022-10-15T15:11:23;99825.13;;;17.73;99.97
21129;BME280;10722;51.910;8.352;2022-10-15T15:14:29;99823.28;;;17.76;99.54
21129;BME280;10722;51.910;8.352;2022-10-15T15:17:17;99827.63;;;17.77;99.49
21129;BME280;10722;51.910;8.352;2022-10-15T15:20:03;99821.56;;;17.75;99.85
21129;BME280;10722;51.910;8.352;2022-10-15T15:22:54;99829.41;;;17.75;99.94
21129;BME280;10722;51.910;8.352;2022-10-15T15:25:39;99825.09;;;17.74;100.00
21129;BME280;10722;51.910;8.352;2022-10-15T15:28:26;99828.50;;;17.76;99.79
21129;BME280;10722;51.910;8.352;2022-10-15T15:31:15;99818.09;;;17.75;99.79
21129;BME280;10722;51.910;8.352;2022-10-15T15:34:01;99823.34;;;17.75;99.80
21129;BME280;10722;51.910;8.352;2022-10-15T15:36:46;99839.88;;;17.75;99.55
21129;BME280;10722;51.910;8.352;2022-10-15T15:39:30;99828.47;;;17.79;99.28
21129;BME280;10722;51.910;8.352;2022-10-15T15:42:21;99822.41;;;17.77;99.69
21129;BME280;10722;51.910;8.352;2022-10-15T15:45:16;99833.03;;;17.71;100.00
21129;BME280;10722;51.910;8.352;2022-10-15T15:48:02;99825.09;;;17.74;99.67
21129;BME280;10722;51.910;8.352;2022-10-15T15:50:47;99831.28;;;17.70;99.99
21129;BME280;10722;51.910;8.352;2022-10-15T15:53:32;99838.38;;;17.65;100.00
21129;BME280;10722;51.910;8.352;2022-10-15T15:56:17;99847.16;;;17.64;100.00
21129;BME280;10722;51.910;8.352;2022-10-15T15:59:02;99852.38;;;17.64;100.00
21129;BME280;10722;51.910;8.352;2022-10-15T16:01:47;99847.03;;;17.68;100.00
21129;BME280;10722;51.910;8.352;2022-10-15T16:04:37;99849.69;;;17.67;100.00
21129;BME280;10722;51.910;8.352;2022-10-15T16:07:23;99844.63;;;17.59;100.00